Time;durP1;ratioP1;P1;durP2;ratioP2;P2;SDS_P1;SDS_P2;PMS_P1;PMS_P2;Temp;Humidity;BMP_temperature;BMP_pressure;BME280_temperature;BME280_humidity;BME280_pressure;Samples;Min_cycle;Max_cycle;Signal;HPM_P1;HPM_P2
2021/04/06 00:00:08;;;;;;;2.55;1.92;;;;;;;4.96;61.51;97709.30;1760721;81;21148;-83
2021/04/06 00:02:37;;;;;;;2.80;2.27;;;;;;;4.85;61.85;97731.38;1760567;81;21124;-84
2021/04/06 00:05:06;;;;;;;2.60;2.02;;;;;;;4.74;62.11;97723.88;1753042;81;21165;-83
2021/04/06 00:07:33;;;;;;;2.72;1.98;;;;;;;4.63;62.20;97711.17;1752420;82;21145;-83
2021/04/06 00:10:01;;;;;;;2.25;2.05;;;;;;;4.58;62.53;97729.59;1760680;81;21298;-83
2021/04/06 00:12:27;;;;;;;3.20;2.20;;;;;;;4.54;62.69;97757.83;1791849;80;21160;-84
2021/04/06 00:14:55;;;;;;;2.85;2.45;;;;;;;4.58;62.85;97765.34;1791767;80;21113;-83
2021/04/06 00:17:22;;;;;;;3.22;2.20;;;;;;;4.52;62.91;97754.74;1792037;80;21559;-83
2021/04/06 00:19:49;;;;;;;3.10;2.20;;;;;;;4.53;62.88;97752.82;1786562;80;21171;-83
2021/04/06 00:22:17;;;;;;;2.75;2.10;;;;;;;4.49;62.91;97770.29;1791879;80;21171;-83
2021/04/06 00:24:47;;;;;;;2.47;2.27;;;;;;;4.47;63.05;97780.64;1786800;80;21578;-83
2021/04/06 00:27:18;;;;;;;3.05;2.20;;;;;;;4.57;62.94;97800.09;1775698;80;21255;-83
2021/04/06 00:29:47;;;;;;;3.42;2.50;;;;;;;4.58;62.96;97804.34;1813759;79;21128;-84
2021/04/06 00:32:14;;;;;;;3.45;2.90;;;;;;;4.61;62.93;97797.41;1813852;79;21125;-83
2021/04/06 00:34:40;;;;;;;3.15;2.50;;;;;;;4.63;63.12;97785.13;1765164;79;21611;-83
2021/04/06 00:37:15;;;;;;;1.98;1.72;;;;;;;4.60;62.96;97779.73;1813349;79;21572;-84
2021/04/06 00:39:42;;;;;;;2.02;1.75;;;;;;;4.55;62.83;97776.07;1813047;79;21128;-82
2021/04/06 00:42:17;;;;;;;1.93;1.60;;;;;;;4.45;62.33;97777.59;1774933;81;21164;-82
2021/04/06 00:44:50;;;;;;;2.27;1.50;;;;;;;4.41;62.57;97792.92;1812911;79;21094;-83
2021/04/06 00:47:25;;;;;;;1.50;1.25;;;;;;;4.22;62.59;97800.70;1748407;81;21113;-84
2021/04/06 00:49:53;;;;;;;2.12;1.30;;;;;;;4.22;62.59;97800.70;1813144;79;21144;-84
2021/04/06 00:52:20;;;;;;;1.70;1.30;;;;;;;4.19;62.71;97792.81;1813243;79;21598;-84
2021/04/06 00:54:51;;;;;;;1.62;1.10;;;;;;;4.15;62.61;97802.79;1790792;79;21172;-83
2021/04/06 00:57:18;;;;;;;2.45;1.47;;;;;;;4.13;62.73;97807.76;1774733;80;21252;-84
2021/04/06 01:00:08;;;;;;;2.00;1.40;;;;;;;3.27;62.68;97674.89;1813241;79;21113;-83
2021/04/06 01:02:34;;;;;;;2.20;1.42;;;;;;;4.03;62.57;97799.06;1811553;79;21136;-83
2021/04/06 01:05:06;;;;;;;1.87;1.42;;;;;;;3.98;62.75;97808.27;1813220;79;21171;-82
2021/04/06 01:07:36;;;;;;;2.58;1.72;;;;;;;4.02;62.96;97816.91;1774543;80;21114;-82
2021/04/06 01:10:06;;;;;;;2.05;1.55;;;;;;;4.05;62.79;97816.92;1813207;79;21148;-83
2021/04/06 01:12:33;;;;;;;2.52;1.80;;;;;;;4.12;63.00;97810.81;1813203;79;21114;-83
2021/04/06 01:14:59;;;;;;;2.87;1.85;;;;;;;4.16;63.02;97797.59;1790349;79;21575;-82
2021/04/06 01:17:28;;;;;;;2.92;1.90;;;;;;;4.18;63.09;97800.69;1790589;79;21567;-82
2021/04/06 01:20:08;;;;;;;2.62;1.75;;;;;;;4.21;63.11;97805.89;1813099;79;21591;-83
2021/04/06 01:22:35;;;;;;;2.80;2.00;;;;;;;4.23;63.09;97808.98;1773341;81;21109;-83
2021/04/06 01:25:04;;;;;;;3.33;2.10;;;;;;;4.23;63.05;97813.77;1816698;79;21149;-83
2021/04/06 01:27:30;;;;;;;3.20;2.20;;;;;;;4.26;62.94;97822.23;1805800;79;21101;-83
2021/04/06 01:29:57;;;;;;;3.50;2.30;;;;;;;4.31;63.01;97826.68;1754640;82;21157;-83
2021/04/06 01:32:26;;;;;;;3.30;2.20;;;;;;;4.27;62.95;97819.16;1805968;79;21140;-83
2021/04/06 01:34:53;;;;;;;3.25;2.45;;;;;;;4.28;63.00;97822.61;1805438;79;21290;-83
2021/04/06 01:37:20;;;;;;;3.60;2.43;;;;;;;4.26;62.84;97805.53;1754935;82;21291;-83
2021/04/06 01:39:49;;;;;;;3.05;2.58;;;;;;;4.23;63.03;97811.66;1805949;79;21140;-81
2021/04/06 01:42:15;;;;;;;3.90;2.52;;;;;;;4.19;62.84;97815.66;1754596;82;21118;-84
2021/04/06 01:44:44;;;;;;;4.12;2.77;;;;;;;4.19;62.94;97830.44;1805739;79;21572;-83
2021/04/06 01:47:13;;;;;;;4.08;2.60;;;;;;;4.16;62.96;97831.19;1805495;79;21575;-83
2021/04/06 01:49:38;;;;;;;4.75;2.72;;;;;;;4.14;62.94;97830.02;1805254;79;21579;-83
2021/04/06 01:52:05;;;;;;;4.05;2.77;;;;;;;4.11;62.97;97834.80;1754637;82;21616;-83
2021/04/06 01:54:34;;;;;;;4.20;3.22;;;;;;;4.12;63.21;97837.67;1806058;79;21148;-83
2021/04/06 01:57:05;;;;;;;3.75;2.70;;;;;;;4.12;63.19;97832.30;1805592;79;21173;-83
2021/04/06 01:59:38;;;;;;;4.10;2.92;;;;;;;4.13;63.10;97832.52;1804996;79;21615;-83
2021/04/06 02:02:01;;;;;;;4.25;3.00;;;;;;;4.11;63.10;97828.09;1753221;81;21152;-83
2021/04/06 02:04:28;;;;;;;4.58;3.10;;;;;;;4.10;63.14;97826.55;1805734;79;21157;-82
2021/04/06 02:06:57;;;;;;;4.95;3.17;;;;;;;4.09;63.08;97829.03;1754689;81;21319;-82
2021/04/06 02:09:23;;;;;;;3.83;2.80;;;;;;;4.03;63.13;97822.47;1805607;79;21563;-81
2021/04/06 02:11:50;;;;;;;4.05;2.92;;;;;;;4.02;63.26;97827.66;1754589;82;21161;-81
2021/04/06 02:14:18;;;;;;;3.70;3.10;;;;;;;4.04;63.22;97822.66;1805817;79;21113;-81
2021/04/06 02:16:52;;;;;;;5.40;3.17;;;;;;;4.00;63.19;97825.33;1805641;79;21144;-82
2021/04/06 02:19:22;;;;;;;4.42;3.27;;;;;;;4.00;63.39;97834.73;1754728;81;21733;-81
2021/04/06 02:21:51;;;;;;;4.33;2.62;;;;;;;4.00;63.30;97841.45;1803877;79;21290;-82
2021/04/06 02:24:37;;;;;;;4.10;2.92;;;;;;;4.01;63.37;97844.36;1804394;79;21157;-83
2021/04/06 02:27:07;;;;;;;4.30;2.95;;;;;;;4.04;63.27;97843.60;1767965;81;21117;-82
2021/04/06 02:29:38;;;;;;;3.00;2.50;;;;;;;4.03;63.18;97848.76;1813513;79;21144;-83
2021/04/06 02:32:12;;;;;;;4.72;2.80;;;;;;;4.03;63.18;97862.19;1813087;79;21579;-82
2021/04/06 02:34:42;;;;;;;2.72;2.47;;;;;;;4.06;63.21;97866.05;1774388;80;21577;-82
2021/04/06 02:37:18;;;;;;;4.12;2.50;;;;;;;4.05;63.22;97867.97;1812985;79;21583;-83
2021/04/06 02:40:07;;;;;;;4.20;2.47;;;;;;;4.02;63.50;97867.95;1870744;76;22831;-81
2021/04/06 02:42:37;;;;;;;4.72;3.10;;;;;;;4.06;63.22;97871.42;1823283;79;21139;-81
2021/04/06 02:45:30;;;;;;;3.62;2.33;;;;;;;4.04;63.19;97857.58;1823324;79;21141;-82
2021/04/06 02:48:04;;;;;;;4.15;2.90;;;;;;;4.03;63.24;97855.47;1823374;79;21131;-83
2021/04/06 02:50:26;;;;;;;4.45;2.85;;;;;;;4.02;63.29;97841.09;1822215;79;21570;-83
2021/04/06 02:52:53;;;;;;;3.58;3.12;;;;;;;3.98;63.33;97834.33;1823561;79;21146;-84
2021/04/06 02:55:21;;;;;;;4.62;3.08;;;;;;;3.98;63.38;97831.64;1823218;79;21139;-84
2021/04/06 02:57:50;;;;;;;4.30;3.22;;;;;;;3.96;63.43;97836.06;1823342;79;21581;-85
2021/04/06 03:00:29;;;;;;;5.28;3.37;;;;;;;3.97;63.50;97816.11;1822828;79;21130;-84
2021/04/06 03:03:16;;;;;;;4.67;3.50;;;;;;;3.91;63.64;97822.21;1823241;79;21143;-82
2021/04/06 03:05:43;;;;;;;5.25;3.47;;;;;;;3.89;63.86;97835.23;1823133;79;21140;-82
2021/04/06 03:08:09;;;;;;;5.28;3.70;;;;;;;3.89;63.73;97846.75;1823341;79;21096;-81
2021/04/06 03:10:36;;;;;;;5.10;3.80;;;;;;;3.92;63.84;97854.05;1823362;79;21128;-81
2021/04/06 03:13:12;;;;;;;5.80;4.28;;;;;;;3.93;63.90;97850.82;1823232;79;21700;-81
2021/04/06 03:15:42;;;;;;;5.55;4.37;;;;;;;3.96;63.84;97854.86;1823291;79;21597;-82
2021/04/06 03:18:11;;;;;;;7.00;4.60;;;;;;;3.98;63.75;97857.16;1823267;79;21116;-83
2021/04/06 03:20:39;;;;;;;6.75;5.05;;;;;;;3.95;63.70;97847.94;1823696;79;21135;-83
2021/04/06 03:23:06;;;;;;;5.78;4.72;;;;;;;3.97;63.79;97847.57;1823206;79;21236;-84
2021/04/06 03:25:33;;;;;;;6.70;4.85;;;;;;;3.95;63.89;97849.85;1823413;79;21131;-83
2021/04/06 03:28:09;;;;;;;8.20;5.30;;;;;;;3.91;63.88;97843.70;1823836;79;21496;-83
2021/04/06 03:30:36;;;;;;;6.78;5.72;;;;;;;3.93;63.92;97850.24;1823372;79;21127;-82
2021/04/06 03:33:07;;;;;;;7.25;5.42;;;;;;;3.94;64.18;97865.20;1823204;79;21134;-81
2021/04/06 03:35:34;;;;;;;8.88;6.10;;;;;;;3.98;64.25;97867.36;1823011;79;21574;-80
2021/04/06 03:38:02;;;;;;;7.78;5.60;;;;;;;4.03;64.18;97878.88;1821453;79;21167;-81
2021/04/06 03:40:37;;;;;;;8.68;5.97;;;;;;;4.06;64.09;97869.50;1801899;80;21144;-81
2021/04/06 03:43:17;;;;;;;8.10;6.22;;;;;;;4.07;63.98;97880.46;1801859;80;21537;-81
2021/04/06 03:45:57;;;;;;;8.08;6.22;;;;;;;4.03;64.09;97889.05;1801752;80;21105;-82
2021/04/06 03:48:25;;;;;;;8.88;7.15;;;;;;;3.98;64.24;97896.11;1801900;80;21148;-82
2021/04/06 03:50:52;;;;;;;10.45;7.17;;;;;;;3.95;64.35;97890.91;1801665;80;21097;-82
2021/04/06 03:53:22;;;;;;;8.25;6.83;;;;;;;3.98;64.34;97901.48;1801531;80;21128;-82
2021/04/06 03:56:09;;;;;;;9.18;6.70;;;;;;;4.00;64.40;97905.34;1801437;79;21143;-83
2021/04/06 03:58:44;;;;;;;8.13;6.10;;;;;;;3.98;64.41;97908.20;1801275;80;21163;-82
2021/04/06 04:01:13;;;;;;;9.10;6.30;;;;;;;3.94;64.22;97913.55;1801101;80;21716;-83
2021/04/06 04:03:39;;;;;;;8.60;6.60;;;;;;;3.94;64.29;97915.48;1801391;80;21143;-83
2021/04/06 04:06:06;;;;;;;8.33;6.23;;;;;;;3.93;64.25;97929.48;1801622;80;21136;-83
2021/04/06 04:08:32;;;;;;;8.65;6.60;;;;;;;3.95;64.33;97927.17;1801401;80;21132;-83
2021/04/06 04:10:59;;;;;;;9.33;6.85;;;;;;;3.98;64.29;97932.38;1801377;80;21147;-83
2021/04/06 04:13:25;;;;;;;9.20;6.67;;;;;;;4.00;64.29;97927.41;1801276;80;21274;-83
2021/04/06 04:15:52;;;;;;;10.65;6.92;;;;;;;3.97;64.36;97927.58;1801152;80;21140;-83
2021/04/06 04:18:18;;;;;;;8.18;6.35;;;;;;;3.97;64.36;97935.64;1801256;80;21155;-84
2021/04/06 04:20:45;;;;;;;9.88;7.42;;;;;;;3.97;64.31;97936.22;1801244;80;21140;-83
2021/04/06 04:23:11;;;;;;;8.33;6.58;;;;;;;3.99;64.39;97939.31;1801366;80;21132;-83
2021/04/06 04:25:38;;;;;;;9.13;6.83;;;;;;;4.00;64.32;97934.89;1801337;80;21140;-83
2021/04/06 04:28:04;;;;;;;9.75;7.03;;;;;;;4.01;64.26;97935.69;1801397;80;21148;-83
2021/04/06 04:30:38;;;;;;;9.85;7.30;;;;;;;4.00;64.39;97926.06;1801509;80;21669;-85
2021/04/06 04:33:06;;;;;;;9.83;6.92;;;;;;;4.04;64.50;97922.06;1771843;80;21164;-82
2021/04/06 04:35:32;;;;;;;9.68;7.33;;;;;;;4.05;64.20;97915.56;1771995;80;21112;-83
2021/04/06 04:38:05;;;;;;;9.68;7.05;;;;;;;4.02;64.32;97903.64;1801004;80;21270;-83
2021/04/06 04:40:32;;;;;;;10.48;7.75;;;;;;;4.02;64.39;97908.25;1800753;80;21582;-83
2021/04/06 04:42:58;;;;;;;10.15;7.83;;;;;;;4.05;64.40;97918.25;1801291;80;21595;-83
2021/04/06 04:45:25;;;;;;;10.63;7.95;;;;;;;4.06;64.34;97927.27;1801333;80;21168;-84
2021/04/06 04:47:51;;;;;;;10.72;8.03;;;;;;;4.10;64.17;97928.66;1801326;79;21140;-84
2021/04/06 04:50:19;;;;;;;11.70;8.00;;;;;;;4.10;64.17;97928.08;1801309;80;21117;-84
2021/04/06 04:52:49;;;;;;;10.45;7.87;;;;;;;4.11;64.18;97923.47;1801747;80;21136;-84
2021/04/06 04:55:17;;;;;;;11.53;8.28;;;;;;;4.11;64.18;97922.89;1801197;80;21145;-84
2021/04/06 04:57:43;;;;;;;11.43;8.00;;;;;;;4.11;64.33;97933.64;1801209;80;21128;-84
2021/04/06 05:00:10;;;;;;;10.80;8.33;;;;;;;4.13;64.24;97938.08;1801354;80;21132;-84
2021/04/06 05:02:37;;;;;;;12.60;8.70;;;;;;;4.15;64.07;97946.55;1801435;80;21696;-83
2021/04/06 05:05:05;;;;;;;11.05;8.35;;;;;;;4.17;64.00;97940.23;1801482;80;21258;-83
2021/04/06 05:07:32;;;;;;;12.65;8.58;;;;;;;4.13;63.81;97944.79;1800985;80;21271;-83
2021/04/06 05:09:58;;;;;;;13.05;8.75;;;;;;;4.12;63.88;97953.21;1801105;80;21555;-84
2021/04/06 05:12:25;;;;;;;13.05;8.35;;;;;;;4.12;64.08;97952.66;1801193;80;21168;-83
2021/04/06 05:14:51;;;;;;;10.60;8.38;;;;;;;4.13;63.83;97946.71;1801176;80;21702;-83
2021/04/06 05:17:18;;;;;;;10.72;8.15;;;;;;;4.17;63.79;97945.61;1801218;80;21140;-83
2021/04/06 05:19:44;;;;;;;11.10;8.43;;;;;;;4.19;63.55;97945.22;1801463;80;21168;-84
2021/04/06 05:22:11;;;;;;;13.85;9.10;;;;;;;4.19;63.66;97950.02;1801082;80;21274;-84
2021/04/06 05:24:37;;;;;;;11.83;9.25;;;;;;;4.19;63.68;97954.05;1801008;80;21286;-84
2021/04/06 05:27:04;;;;;;;11.60;8.98;;;;;;;4.20;63.92;97959.64;1801189;80;21591;-84
2021/04/06 05:29:31;;;;;;;12.43;9.23;;;;;;;4.20;63.92;97959.64;1801367;80;21694;-84
2021/04/06 05:31:57;;;;;;;12.93;9.38;;;;;;;4.27;63.68;97967.55;1801267;80;21159;-85
2021/04/06 05:34:24;;;;;;;13.68;9.48;;;;;;;4.26;63.42;97961.41;1801523;80;21273;-81
2021/04/06 05:36:50;;;;;;;11.53;9.23;;;;;;;4.27;63.32;97966.97;1801168;80;21686;-80
2021/04/06 05:39:17;;;;;;;12.20;9.25;;;;;;;4.27;63.20;97974.27;1801157;79;21135;-81
2021/04/06 05:41:44;;;;;;;15.95;10.05;;;;;;;4.33;63.49;97964.70;1801267;80;21136;-80
2021/04/06 05:44:11;;;;;;;15.53;10.45;;;;;;;4.33;63.49;97964.70;1801410;80;21105;-79
2021/04/06 05:46:39;;;;;;;15.23;9.75;;;;;;;4.42;63.44;97967.28;1801456;80;21285;-80
2021/04/06 05:49:11;;;;;;;14.00;9.90;;;;;;;4.48;63.18;97965.02;1801197;80;21140;-80
2021/04/06 05:51:38;;;;;;;12.63;9.53;;;;;;;4.54;63.10;97966.78;1801229;80;21167;-80
2021/04/06 05:54:06;;;;;;;14.85;9.65;;;;;;;4.49;63.03;97963.09;1801337;80;21133;-80
2021/04/06 05:56:32;;;;;;;;;;;;;;;4.57;62.94;97970.06;1803849;80;21136;-80
2021/04/06 05:58:59;;;;;;;13.05;9.95;;;;;;;4.61;62.71;97972.19;1801002;80;20138;-80
2021/04/06 06:01:29;;;;;;;15.50;10.15;;;;;;;4.61;62.71;97972.19;1801538;80;21724;-80
2021/04/06 06:03:55;;;;;;;14.25;9.75;;;;;;;4.58;62.59;97975.08;1801353;80;21559;-89
2021/04/06 06:06:23;;;;;;;14.70;10.47;;;;;;;4.60;62.92;97981.41;1801835;79;21270;-87
2021/04/06 06:08:51;;;;;;;12.90;10.15;;;;;;;4.70;62.77;97987.44;1801113;80;21254;-87
2021/04/06 06:11:18;;;;;;;14.23;10.00;;;;;;;4.81;62.49;97999.61;1801290;80;21131;-80
2021/04/06 06:13:44;;;;;;;16.65;10.45;;;;;;;4.87;62.30;97996.17;1801230;80;21147;-85
2021/04/06 06:16:25;;;;;;;14.15;10.38;;;;;;;4.90;62.18;97997.34;1801110;80;21140;-85
2021/04/06 06:18:59;;;;;;;14.35;10.15;;;;;;;4.91;62.01;97993.52;1801404;80;21152;-86
2021/04/06 06:21:38;;;;;;;14.50;10.20;;;;;;;4.89;62.07;97997.16;1801145;79;21128;-84
2021/04/06 06:24:05;;;;;;;12.88;10.05;;;;;;;4.89;61.79;98003.87;1794753;80;21297;-84
2021/04/06 06:26:32;;;;;;;14.15;10.32;;;;;;;4.88;62.01;97993.70;1801396;79;21105;-84
2021/04/06 06:29:09;;;;;;;12.88;9.78;;;;;;;4.90;61.80;97998.11;1800967;79;21259;-84
2021/04/06 06:31:42;;;;;;;15.60;10.55;;;;;;;5.01;61.21;98008.16;1799348;80;21734;-85
2021/04/06 06:34:40;;;;;;;12.90;9.55;;;;;;;5.01;61.21;98008.16;1800988;79;21686;-87
2021/04/06 06:37:12;;;;;;;16.10;11.68;;;;;;;5.03;61.55;98006.64;1801290;80;21270;-87
2021/04/06 06:39:56;;;;;;;13.25;10.38;;;;;;;5.03;61.59;97987.81;1803810;78;21661;-84
2021/04/06 06:42:25;;;;;;;14.58;10.40;;;;;;;5.03;61.59;97987.81;1808214;79;21278;-84
2021/04/06 06:44:52;;;;;;;13.35;10.25;;;;;;;5.06;61.26;97990.32;1808194;79;21285;-82
2021/04/06 06:47:21;;;;;;;14.20;9.68;;;;;;;5.06;61.15;97991.66;1808288;79;21108;-82
2021/04/06 06:49:51;;;;;;;14.10;9.70;;;;;;;5.10;61.00;97983.81;1808188;79;21701;-84
2021/04/06 06:52:26;;;;;;;11.80;9.15;;;;;;;5.07;61.04;97991.30;1808166;79;21265;-84
2021/04/06 06:55:01;;;;;;;15.32;9.85;;;;;;;5.13;60.77;97993.05;1808310;79;21144;-83
2021/04/06 06:57:31;;;;;;;14.15;9.88;;;;;;;5.15;60.84;97993.42;1807613;79;21474;-86
2021/04/06 07:00:10;;;;;;;14.63;9.53;;;;;;;5.20;60.75;97994.41;1807755;79;21278;-86
2021/04/06 07:02:40;;;;;;;11.93;8.95;;;;;;;5.30;60.75;98004.46;1808316;79;21282;-86
2021/04/06 07:05:21;;;;;;;12.73;9.40;;;;;;;5.45;60.06;98006.63;1808780;79;21155;-87
2021/04/06 07:07:53;;;;;;;14.40;9.68;;;;;;;5.56;60.02;98011.50;1808073;79;21558;-86
2021/04/06 07:10:24;;;;;;;13.58;9.80;;;;;;;5.74;59.64;98013.46;1808047;79;21274;-86
2021/04/06 07:13:00;;;;;;;15.23;10.00;;;;;;;5.94;58.86;97998.50;1807981;79;21136;-85
2021/04/06 07:15:27;;;;;;;17.32;11.05;;;;;;;5.94;58.86;97998.50;1808284;79;21139;-85
2021/04/06 07:17:57;;;;;;;15.00;10.05;;;;;;;6.10;59.05;98007.58;1808355;79;21136;-83
2021/04/06 07:20:23;;;;;;;16.42;10.28;;;;;;;6.24;58.87;98010.86;1808194;79;21132;-88
2021/04/06 07:22:51;;;;;;;14.17;10.73;;;;;;;6.27;58.52;98010.09;1808563;79;21297;-84
2021/04/06 07:25:18;;;;;;;15.10;11.12;;;;;;;6.34;58.24;98003.94;1808075;79;21273;-84
2021/04/06 07:27:45;;;;;;;14.47;11.55;;;;;;;6.41;58.13;98007.41;1808278;79;21144;-82
2021/04/06 07:30:13;;;;;;;18.75;12.25;;;;;;;6.54;57.56;98009.13;1808727;79;21131;-83
2021/04/06 07:32:41;;;;;;;17.95;12.25;;;;;;;6.57;57.79;98008.34;1808373;79;21108;-83
2021/04/06 07:35:09;;;;;;;15.73;11.87;;;;;;;6.66;57.76;98003.93;1808423;79;21128;-83
2021/04/06 07:37:41;;;;;;;14.30;10.75;;;;;;;6.78;57.54;98004.86;1808143;79;21275;-83
2021/04/06 07:40:10;;;;;;;16.82;10.88;;;;;;;6.87;57.09;98013.34;1815299;79;21143;-83
2021/04/06 07:42:39;;;;;;;16.10;10.88;;;;;;;6.92;56.95;98017.55;1823007;79;21166;-82
2021/04/06 07:45:09;;;;;;;14.18;10.45;;;;;;;7.01;56.62;98011.75;1822869;79;21151;-82
2021/04/06 07:47:37;;;;;;;14.45;10.03;;;;;;;7.11;56.47;98008.25;1823307;79;21108;-81
2021/04/06 07:50:06;;;;;;;13.00;10.20;;;;;;;7.19;56.25;98015.17;1823064;79;21096;-82
2021/04/06 07:52:33;;;;;;;11.85;9.75;;;;;;;7.28;55.81;98017.45;1793233;79;21562;-82
2021/04/06 07:54:59;;;;;;;12.50;10.13;;;;;;;7.31;55.55;98013.97;1823238;79;21115;-82
2021/04/06 07:57:43;;;;;;;14.00;10.18;;;;;;;7.38;55.81;98023.99;1823256;79;21143;-82
2021/04/06 08:00:10;;;;;;;15.55;9.98;;;;;;;7.42;55.59;98019.33;1823297;79;21123;-86
2021/04/06 08:02:43;;;;;;;11.18;9.13;;;;;;;7.47;54.76;98021.63;1823413;79;21162;-87
2021/04/06 08:05:18;;;;;;;11.88;9.03;;;;;;;7.56;54.88;98022.00;1823082;79;21126;-86
2021/04/06 08:07:45;;;;;;;12.82;8.60;;;;;;;7.90;54.17;98013.31;1793311;79;21180;-86
2021/04/06 08:10:21;;;;;;;11.38;8.58;;;;;;;8.48;53.01;98019.11;1823340;79;21269;-86
2021/04/06 08:12:48;;;;;;;12.70;8.30;;;;;;;9.11;52.07;98021.82;1823271;79;21530;-84
2021/04/06 08:15:15;;;;;;;12.07;8.30;;;;;;;9.70;50.78;98031.56;1823421;79;21135;-83
2021/04/06 08:17:52;;;;;;;11.40;7.00;;;;;;;10.03;49.72;98032.50;1823155;79;21130;-86
2021/04/06 08:20:26;;;;;;;11.88;6.83;;;;;;;10.07;49.20;98042.72;1823181;79;21115;-86
2021/04/06 08:22:56;;;;;;;8.50;6.53;;;;;;;10.35;48.68;98036.89;1822975;79;21134;-83
2021/04/06 08:25:33;;;;;;;9.43;6.62;;;;;;;10.47;47.61;98041.56;1823602;79;21112;-84
2021/04/06 08:28:05;;;;;;;11.10;6.47;;;;;;;10.29;47.63;98047.28;1823080;79;21150;-84
2021/04/06 08:30:38;;;;;;;9.53;6.95;;;;;;;9.99;47.83;98040.70;1818943;79;21148;-82
2021/04/06 08:33:10;;;;;;;8.13;6.90;;;;;;;9.78;48.47;98041.73;1823244;79;21111;-83
2021/04/06 08:35:49;;;;;;;12.15;7.42;;;;;;;9.74;48.25;98044.50;1823577;79;21155;-84
2021/04/06 08:38:28;;;;;;;13.93;7.03;;;;;;;9.68;48.74;98054.24;1823539;79;21139;-84
2021/04/06 08:40:58;;;;;;;11.78;7.65;;;;;;;9.69;48.62;98047.66;1813016;79;21131;-83
2021/04/06 08:43:40;;;;;;;9.80;7.00;;;;;;;9.70;48.57;98045.72;1808279;79;21740;-83
2021/04/06 08:46:08;;;;;;;9.00;6.80;;;;;;;9.64;48.63;98035.91;1812379;79;21124;-83
2021/04/06 08:48:48;;;;;;;10.08;6.05;;;;;;;9.51;48.87;98027.55;1808730;79;21179;-83
2021/04/06 08:51:29;;;;;;;9.30;5.35;;;;;;;9.47;48.52;98024.12;1808167;79;21730;-83
2021/04/06 08:54:00;;;;;;;7.25;5.33;;;;;;;9.32;48.13;98036.28;1808307;79;21116;-84
2021/04/06 08:56:29;;;;;;;7.22;5.47;;;;;;;9.19;48.12;98042.80;1808174;79;21261;-84
2021/04/06 08:59:16;;;;;;;9.05;5.45;;;;;;;9.00;48.77;98030.64;1807954;79;21278;-84
2021/04/06 09:01:44;;;;;;;8.85;5.80;;;;;;;8.97;48.73;98027.36;1808374;79;21132;-84
2021/04/06 09:04:17;;;;;;;10.72;5.60;;;;;;;8.83;48.81;98035.63;1808412;79;21554;-84
2021/04/06 09:06:44;;;;;;;9.03;6.00;;;;;;;8.65;48.97;98033.09;1808247;79;21084;-84
2021/04/06 09:09:10;;;;;;;11.50;5.90;;;;;;;8.50;49.47;98037.08;1808907;79;21252;-85
2021/04/06 09:11:38;;;;;;;10.88;6.35;;;;;;;8.40;49.67;98035.42;1808802;79;21567;-84
2021/04/06 09:14:05;;;;;;;7.90;5.72;;;;;;;8.47;49.75;98032.47;1808261;79;21167;-84
2021/04/06 09:16:33;;;;;;;10.65;5.67;;;;;;;8.56;49.37;98029.47;1812567;79;21112;-84
2021/04/06 09:19:02;;;;;;;10.65;5.78;;;;;;;8.55;49.37;98027.95;1808367;79;21563;-84
2021/04/06 09:21:30;;;;;;;7.80;5.28;;;;;;;8.58;49.13;98022.32;1807837;79;21286;-84
2021/04/06 09:23:59;;;;;;;7.97;5.30;;;;;;;8.47;48.86;98009.47;1808247;79;21571;-84
2021/04/06 09:26:26;;;;;;;11.05;5.70;;;;;;;8.38;49.41;98008.55;1785851;79;21136;-84
2021/04/06 09:29:00;;;;;;;8.90;5.58;;;;;;;8.37;49.88;98006.41;1808592;79;21140;-84
2021/04/06 09:31:27;;;;;;;7.97;5.22;;;;;;;8.48;50.17;98001.53;1808121;79;21132;-84
2021/04/06 09:34:07;;;;;;;;;;;;;;;8.57;49.10;98003.20;1810765;79;21132;-84
2021/04/06 09:36:34;;;;;;;10.25;5.30;;;;;;;8.63;48.95;97998.89;1807560;79;20402;-82
2021/04/06 09:39:01;;;;;;;7.40;5.27;;;;;;;8.55;49.16;98004.95;1808402;79;21278;-82
2021/04/06 09:41:30;;;;;;;13.38;5.37;;;;;;;8.52;49.19;98006.34;1820387;79;21100;-82
2021/04/06 09:43:56;;;;;;;10.75;6.00;;;;;;;8.59;49.14;98005.70;1822334;79;21148;-81
2021/04/06 09:46:34;;;;;;;9.60;5.33;;;;;;;8.74;49.17;98004.20;1823481;79;21554;-80
2021/04/06 09:49:01;;;;;;;7.47;5.20;;;;;;;9.06;48.95;98007.36;1823060;79;21120;-81
2021/04/06 09:51:27;;;;;;;7.70;4.70;;;;;;;9.43;47.91;98011.78;1823198;79;21124;-81
2021/04/06 09:53:54;;;;;;;8.73;4.87;;;;;;;9.57;47.43;98010.23;1823046;79;21126;-80
2021/04/06 09:56:21;;;;;;;11.05;6.50;;;;;;;9.61;46.76;97999.38;1823061;79;21163;-81
2021/04/06 09:58:47;;;;;;;6.87;4.57;;;;;;;9.60;46.80;98001.30;1823191;79;21143;-81
2021/04/06 10:01:23;;;;;;;6.33;4.55;;;;;;;9.54;46.35;98003.69;1823132;79;21127;-82
2021/04/06 10:03:56;;;;;;;7.50;4.30;;;;;;;9.54;46.51;98006.98;1822536;79;21563;-81
2021/04/06 10:06:40;;;;;;;8.33;4.33;;;;;;;9.65;45.91;98010.33;1822553;79;21280;-81
2021/04/06 10:09:25;;;;;;;8.05;4.97;;;;;;;9.68;45.89;98001.97;1823029;79;21100;-83
2021/04/06 10:11:52;;;;;;;8.13;4.55;;;;;;;9.76;45.39;98000.70;1822507;79;21131;-81
2021/04/06 10:14:20;;;;;;;5.92;4.35;;;;;;;9.45;45.55;98000.72;1823097;79;21131;-89
2021/04/06 10:16:46;;;;;;;;;;;;;;;9.33;45.81;98000.67;1825831;79;21155;-83
2021/04/06 10:19:22;;;;;;;8.00;4.80;;;;;;;9.32;46.14;97986.16;1793223;79;20399;-82
2021/04/06 10:22:09;;;;;;;7.28;4.85;;;;;;;9.26;46.19;97975.01;1822948;79;21127;-82
2021/04/06 10:24:40;;;;;;;7.58;4.67;;;;;;;9.18;45.90;97981.69;1823050;79;21136;-81
2021/04/06 10:27:13;;;;;;;7.12;4.05;;;;;;;9.12;45.70;97983.31;1823030;79;21281;-81
2021/04/06 10:29:40;;;;;;;7.95;4.80;;;;;;;9.12;45.43;97976.54;1823062;79;21116;-81
2021/04/06 10:32:06;;;;;;;8.63;5.97;;;;;;;9.18;45.53;97986.34;1823102;79;21139;-82
2021/04/06 10:34:33;;;;;;;9.70;5.50;;;;;;;9.29;45.40;97979.61;1823406;79;21107;-81
2021/04/06 10:37:03;;;;;;;7.65;5.75;;;;;;;9.40;45.24;97974.06;1823398;79;21127;-80
2021/04/06 10:39:38;;;;;;;8.40;6.20;;;;;;;9.49;45.08;97966.22;1822539;79;21150;-81
2021/04/06 10:42:06;;;;;;;8.43;6.03;;;;;;;9.47;45.30;97963.14;1808840;79;21285;-81
2021/04/06 10:44:33;;;;;;;11.78;6.05;;;;;;;9.58;45.05;97964.95;1808322;79;21140;-80
2021/04/06 10:47:01;;;;;;;9.83;6.70;;;;;;;9.63;44.76;97953.06;1808360;79;21270;-81
2021/04/06 10:49:27;;;;;;;9.73;6.53;;;;;;;9.74;45.22;97945.55;1808309;79;21282;-81
2021/04/06 10:51:55;;;;;;;11.70;6.67;;;;;;;9.95;44.72;97937.66;1808306;79;21293;-82
2021/04/06 10:54:23;;;;;;;9.45;6.35;;;;;;;10.13;44.58;97930.61;1808006;79;21093;-81
2021/04/06 10:56:55;;;;;;;8.48;6.25;;;;;;;10.24;44.04;97941.29;1808498;79;21278;-81
2021/04/06 10:59:31;;;;;;;7.80;5.50;;;;;;;10.33;43.55;97940.78;1808188;79;21290;-81
2021/04/06 11:01:57;;;;;;;10.30;6.22;;;;;;;10.41;43.37;97945.67;1808757;79;21148;-82
2021/04/06 11:04:26;;;;;;;12.80;6.97;;;;;;;10.53;42.90;97944.33;1808532;79;21698;-81
2021/04/06 11:07:04;;;;;;;8.68;6.62;;;;;;;10.53;42.72;97945.69;1808472;79;21277;-82
2021/04/06 11:09:43;;;;;;;10.75;7.42;;;;;;;10.41;42.47;97957.13;1808453;79;21136;-82
2021/04/06 11:12:11;;;;;;;11.18;7.83;;;;;;;10.09;43.01;97983.38;1808153;79;21120;-82
2021/04/06 11:14:39;;;;;;;11.80;7.83;;;;;;;9.77;43.73;97985.39;1808342;79;21151;-82
2021/04/06 11:17:06;;;;;;;12.82;7.92;;;;;;;9.50;44.23;97965.03;1808145;79;21132;-82
2021/04/06 11:19:37;;;;;;;12.07;8.33;;;;;;;9.31;44.80;97950.77;1808375;79;21128;-82
2021/04/06 11:22:11;;;;;;;13.48;8.88;;;;;;;9.19;45.44;97968.31;1808426;79;21231;-82
2021/04/06 11:24:38;;;;;;;12.20;8.38;;;;;;;9.11;45.73;97974.42;1806080;79;21128;-82
2021/04/06 11:27:06;;;;;;;11.57;7.03;;;;;;;9.02;45.80;97972.00;1808267;79;21298;-81
2021/04/06 11:29:33;;;;;;;11.63;6.85;;;;;;;8.85;45.53;97968.31;1808590;79;21120;-82
2021/04/06 11:32:02;;;;;;;8.08;6.17;;;;;;;8.73;45.49;97963.41;1808239;79;21271;-83
2021/04/06 11:34:29;;;;;;;10.00;7.22;;;;;;;8.68;45.46;97955.75;1808329;79;21270;-82
2021/04/06 11:36:56;;;;;;;14.33;7.50;;;;;;;8.55;45.45;97952.17;1808437;79;21273;-81
2021/04/06 11:39:25;;;;;;;10.20;7.80;;;;;;;8.51;46.02;97950.66;1808554;79;21297;-82
2021/04/06 11:41:52;;;;;;;11.12;7.60;;;;;;;8.58;46.21;97958.14;1808059;79;21262;-82
2021/04/06 11:44:18;;;;;;;11.83;7.55;;;;;;;8.49;46.06;97961.14;1808583;79;21128;-84
2021/04/06 11:46:47;;;;;;;12.70;7.28;;;;;;;8.49;46.24;97970.02;1808197;79;21160;-83
2021/04/06 11:49:14;;;;;;;11.35;6.85;;;;;;;8.51;46.37;97974.45;1808527;79;21159;-84